KACT/ACT METAR and TAF weather

Enter ICAO airport designator
Station Type Date Time Source
KACT METAR 2022/12/02 23:20 UTC NOAA

KACT 022320Z 18014KT 10SM FEW016 18/17 A3002 RMK AO2 T01780167


Station Type Date Time Source
KACT Decoded METAR 2022/12/02 23:20 UTC NOAA

WACO REGIONAL AIRPORT, TX, United States (KACT) 31-36N 97-13W 151M
Dec 02, 2022 - 06:20 PM EST / 2022.12.02 2320 UTC
Wind: from the S (180 degrees) at 16 MPH (14 KT):0
Visibility: 10 mile(s):0
Sky conditions: mostly clear
Temperature: 64.0 F (17.8 C)
Dew Point: 62.1 F (16.7 C)
Relative Humidity: 93%
Pressure (altimeter): 30.02 in. Hg (1016 hPa)
ob: KACT 022320Z 18014KT 10SM FEW016 18/17 A3002 RMK AO2 T01780167
cycle: 23

Station Type Date Time Source
KACT TAF 2022/12/02 21:09 UTC NOAA

TAF
AMD KACT 022106Z 0221/0318 20014KT P6SM BKN018
FM030200 19013KT P6SM FEW010 SCT022
FM031000 33015KT P6SM SCT025

Example: see airport list